Time;durP1;ratioP1;P1;durP2;ratioP2;P2;SDS_P1;SDS_P2;PMS_P1;PMS_P2;Temp;Humidity;BMP_temperature;BMP_pressure;BME280_temperature;BME280_humidity;BME280_pressure;Samples;Min_cycle;Max_cycle;Signal;HPM_P1;HPM_P2
2023/02/20 00:00:17;;;;;;;20.00;8.73;;;;;;;6.06;89.27;102737.78;6104003;19;20442;-77
2023/02/20 00:02:22;;;;;;;17.13;8.82;;;;;;;6.02;89.06;102716.00;6097880;19;20451;-74
2023/02/20 00:04:27;;;;;;;18.65;8.45;;;;;;;6.03;89.56;102722.09;6104284;19;20175;-75
2023/02/20 00:06:35;;;;;;;18.67;8.80;;;;;;;6.03;89.38;102722.09;6104302;19;20022;-77
2023/02/20 00:08:43;;;;;;;19.67;9.48;;;;;;;6.05;89.71;102716.03;6100728;19;20038;-77
2023/02/20 00:10:48;;;;;;;22.17;8.55;;;;;;;6.00;89.67;102717.72;6106367;19;20641;-77
2023/02/20 00:12:53;;;;;;;20.45;8.52;;;;;;;5.94;90.12;102713.31;6102129;19;20021;-77
2023/02/20 00:14:58;;;;;;;22.95;9.65;;;;;;;5.99;89.89;102717.72;6103669;19;20279;-78
2023/02/20 00:17:03;;;;;;;16.88;8.90;;;;;;;6.03;89.95;102712.53;6103672;19;20083;-78
2023/02/20 00:19:08;;;;;;;18.80;7.93;;;;;;;5.95;90.20;102706.38;6099815;19;20021;-77
2023/02/20 00:21:14;;;;;;;23.95;9.00;;;;;;;5.94;90.40;102704.63;6105147;19;20014;-77
2023/02/20 00:23:23;;;;;;;22.25;9.18;;;;;;;5.97;90.27;102699.44;6105541;19;20015;-77
2023/02/20 00:25:27;;;;;;;23.67;8.95;;;;;;;5.93;90.78;102685.50;6109121;19;20022;-77
2023/02/20 00:27:32;;;;;;;20.95;9.32;;;;;;;5.87;90.70;102682.81;6109181;19;20017;-78
2023/02/20 00:29:38;;;;;;;19.25;9.30;;;;;;;5.91;90.90;102691.53;6107914;19;20010;-77
2023/02/20 00:31:43;;;;;;;19.73;8.68;;;;;;;5.88;90.88;102691.50;6105327;19;20408;-78
2023/02/20 00:33:48;;;;;;;15.88;8.35;;;;;;;5.84;91.12;102676.66;6104793;19;20043;-74
2023/02/20 00:35:53;;;;;;;23.65;10.63;;;;;;;5.80;91.67;102670.56;6104124;19;20391;-73
2023/02/20 00:37:59;;;;;;;21.65;8.63;;;;;;;5.89;91.80;102678.44;6102263;19;20598;-75
2023/02/20 00:40:11;;;;;;;20.85;8.40;;;;;;;5.83;91.49;102682.75;6102135;19;20443;-74
2023/02/20 00:42:16;;;;;;;25.23;10.38;;;;;;;5.80;92.32;102674.91;6104212;19;19998;-78
2023/02/20 00:44:21;;;;;;;20.17;10.95;;;;;;;5.82;92.21;102670.56;6098383;19;20381;-78
2023/02/20 00:46:27;;;;;;;25.08;11.48;;;;;;;5.85;92.17;102681.03;6108026;19;20015;-79
2023/02/20 00:48:33;;;;;;;26.98;11.00;;;;;;;5.88;92.39;102678.44;6105355;19;20025;-77
2023/02/20 00:50:40;;;;;;;24.52;10.77;;;;;;;5.84;92.35;102682.75;6107905;19;20002;-74
2023/02/20 00:52:46;;;;;;;26.30;10.75;;;;;;;5.89;93.06;102677.56;6099612;19;20351;-76
2023/02/20 00:54:51;;;;;;;25.58;11.65;;;;;;;5.87;92.37;102680.19;6104552;19;20011;-75
2023/02/20 00:56:59;;;;;;;27.83;11.93;;;;;;;5.85;93.01;102665.38;6103666;19;20098;-76
2023/02/20 00:59:04;;;;;;;28.13;11.25;;;;;;;5.84;93.23;102667.09;6100887;19;20011;-74
2023/02/20 01:01:09;;;;;;;26.63;11.85;;;;;;;5.85;93.31;102660.16;6103205;19;20014;-75
2023/02/20 01:03:14;;;;;;;25.73;11.85;;;;;;;5.88;93.47;102657.59;6102904;19;20077;-75
2023/02/20 01:05:20;;;;;;;23.92;12.13;;;;;;;5.81;93.53;102654.03;6101840;19;20408;-75
2023/02/20 01:07:25;;;;;;;34.53;14.63;;;;;;;5.88;93.43;102660.19;6102753;19;20090;-75
2023/02/20 01:09:30;;;;;;;31.73;13.25;;;;;;;5.81;93.71;102650.56;6100253;19;20010;-75
2023/02/20 01:11:36;;;;;;;27.40;13.90;;;;;;;5.81;93.80;102648.81;6101930;19;20384;-74
2023/02/20 01:13:47;;;;;;;32.75;14.73;;;;;;;5.82;94.03;102642.75;6096679;19;20045;-74
2023/02/20 01:15:52;;;;;;;32.20;14.25;;;;;;;5.82;94.30;102650.59;6099684;19;20014;-74
2023/02/20 01:17:57;;;;;;;32.60;13.70;;;;;;;5.88;94.17;102650.63;6102202;19;20455;-74
2023/02/20 01:20:03;;;;;;;35.72;16.13;;;;;;;5.85;94.40;102641.91;6103168;19;20479;-75
2023/02/20 01:22:11;;;;;;;33.65;15.07;;;;;;;5.92;94.24;102649.78;6105297;19;20015;-77
2023/02/20 01:24:15;;;;;;;39.35;17.48;;;;;;;5.94;94.33;102642.00;6102985;19;20490;-76
2023/02/20 01:26:21;;;;;;;38.30;17.60;;;;;;;5.94;94.56;102642.00;6098895;19;20014;-77
2023/02/20 01:28:26;;;;;;;39.60;16.85;;;;;;;5.97;94.49;102633.31;6102537;19;20537;-78
2023/02/20 01:30:33;;;;;;;42.70;17.30;;;;;;;6.02;94.64;102616.81;6097859;19;20077;-78
2023/02/20 01:32:41;;;;;;;42.33;17.63;;;;;;;6.07;94.85;102615.13;6102051;19;20007;-79
2023/02/20 01:34:46;;;;;;;40.90;17.83;;;;;;;6.06;94.61;102612.53;6100535;19;20108;-78
2023/02/20 01:36:52;;;;;;;42.75;18.20;;;;;;;6.15;94.76;102613.44;6101280;19;20514;-77
2023/02/20 01:38:59;;;;;;;43.75;20.10;;;;;;;6.20;94.47;102613.47;6101371;19;20035;-79
2023/02/20 01:41:04;;;;;;;42.40;18.63;;;;;;;6.21;95.02;102619.56;6100094;19;20566;-77
2023/02/20 01:43:12;;;;;;;42.28;17.38;;;;;;;6.21;94.57;102617.81;6102588;19;20035;-78
2023/02/20 01:45:31;;;;;;;53.25;17.58;;;;;;;6.24;94.94;102611.75;6104726;19;20017;-74
2023/02/20 01:47:39;;;;;;;53.08;19.13;;;;;;;6.29;94.92;102615.25;6104247;19;20042;-75
2023/02/20 01:49:49;;;;;;;41.72;16.67;;;;;;;6.31;94.79;102603.09;6105168;19;20085;-74
2023/02/20 01:52:01;;;;;;;45.55;18.77;;;;;;;6.32;94.75;102595.28;6103461;19;20309;-76
2023/02/20 01:54:10;;;;;;;42.67;19.98;;;;;;;6.38;95.13;102595.28;6102545;19;20014;-75
2023/02/20 01:56:15;;;;;;;41.97;16.42;;;;;;;6.47;94.75;102589.25;6103340;19;20481;-74
2023/02/20 01:58:23;;;;;;;40.08;18.05;;;;;;;6.45;94.96;102579.66;6094870;19;20018;-75
2023/02/20 02:00:31;;;;;;;47.30;19.05;;;;;;;6.48;94.78;102577.94;6102395;19;20267;-78
2023/02/20 02:02:43;;;;;;;40.42;16.58;;;;;;;6.53;94.45;102568.38;6103909;19;20459;-78
2023/02/20 02:04:50;;;;;;;35.73;16.70;;;;;;;6.53;94.73;102568.38;6100437;19;20475;-75
2023/02/20 02:06:56;;;;;;;45.78;18.42;;;;;;;6.53;94.46;102573.63;6104314;19;20006;-75
2023/02/20 02:09:09;;;;;;;41.97;18.40;;;;;;;6.55;94.59;102565.75;6100703;19;20047;-77
2023/02/20 02:11:17;;;;;;;47.17;20.58;;;;;;;6.57;94.36;102575.34;6104204;19;20077;-77
2023/02/20 02:13:23;;;;;;;43.60;17.30;;;;;;;6.57;94.32;102569.25;6102949;19;20002;-76
2023/02/20 02:15:28;;;;;;;50.17;19.35;;;;;;;6.64;94.11;102572.78;6102005;19;20015;-79
2023/02/20 02:18:02;;;;;;;45.17;18.52;;;;;;;6.60;93.96;102566.66;6100946;19;20530;-77
2023/02/20 02:20:56;;;;;;;41.85;19.92;;;;;;;6.58;94.23;102555.31;6097853;19;20475;-74
2023/02/20 02:23:43;;;;;;;42.15;16.98;;;;;;;6.59;94.02;102552.72;6097625;19;20318;-75
2023/02/20 02:25:58;;;;;;;40.42;16.63;;;;;;;6.59;94.17;102537.06;6098856;19;20011;-77
2023/02/20 02:28:30;;;;;;;38.15;17.80;;;;;;;6.59;94.07;102530.97;6102145;19;20014;-78
2023/02/20 02:31:01;;;;;;;42.42;18.45;;;;;;;6.59;94.11;102531.84;6095047;19;20024;-79
2023/02/20 02:33:35;;;;;;;40.50;18.45;;;;;;;6.59;93.88;102539.69;6099901;19;20454;-75
2023/02/20 02:36:11;;;;;;;52.20;19.58;;;;;;;6.58;93.91;102540.56;6101005;19;20020;-74
2023/02/20 02:38:27;;;;;;;42.00;17.83;;;;;;;6.60;93.82;102537.94;6095932;19;20501;-75
2023/02/20 02:40:43;;;;;;;44.95;19.05;;;;;;;6.59;94.36;102542.28;6095337;19;20018;-75
2023/02/20 02:42:53;;;;;;;40.90;17.77;;;;;;;6.62;94.13;102537.94;6095718;19;20014;-75
2023/02/20 02:45:09;;;;;;;37.58;17.27;;;;;;;6.67;94.07;102544.06;6099031;19;20101;-75
2023/02/20 02:47:22;;;;;;;46.45;19.17;;;;;;;6.66;94.18;102547.53;6098232;19;20014;-75
2023/02/20 02:49:31;;;;;;;43.63;17.40;;;;;;;6.67;93.94;102539.69;6098495;19;20082;-75
2023/02/20 02:51:39;;;;;;;45.08;17.80;;;;;;;6.66;94.13;102537.97;6098401;19;20007;-76
2023/02/20 02:54:06;;;;;;;46.00;18.08;;;;;;;6.69;93.97;102532.75;6096046;19;20459;-75
2023/02/20 02:56:24;;;;;;;47.72;20.02;;;;;;;6.75;94.43;102537.09;6100644;19;20009;-75
2023/02/20 02:58:29;;;;;;;45.28;20.27;;;;;;;6.80;94.20;102536.25;6094099;19;20027;-78
2023/02/20 03:00:40;;;;;;;38.13;18.02;;;;;;;6.85;94.11;102535.41;6102338;19;20056;-78
2023/02/20 03:02:52;;;;;;;51.58;19.00;;;;;;;6.85;94.00;102533.66;6095783;19;20042;-78
2023/02/20 03:05:00;;;;;;;45.50;17.10;;;;;;;6.88;93.85;102536.28;6100468;19;20391;-77
2023/02/20 03:07:10;;;;;;;46.60;17.50;;;;;;;6.91;93.94;102519.72;6099222;19;20028;-78
2023/02/20 03:09:24;;;;;;;47.40;17.67;;;;;;;6.92;93.84;102535.38;6082646;19;20013;-77
2023/02/20 03:11:32;;;;;;;40.33;15.77;;;;;;;6.93;94.02;102524.09;6104181;19;20007;-78
2023/02/20 03:16:01;;;;;;;38.00;15.00;;;;;;;7.00;93.64;102533.69;6105166;19;20096;-80
2023/02/20 03:18:19;;;;;;;42.38;14.32;;;;;;;7.00;93.61;102522.34;6105410;19;20015;-79
2023/02/20 03:20:25;;;;;;;41.83;14.15;;;;;;;7.03;93.41;102533.69;6102725;19;20018;-78
2023/02/20 03:22:34;;;;;;;31.85;14.23;;;;;;;7.05;93.83;102528.44;6106117;19;20030;-78
2023/02/20 03:24:56;;;;;;;37.85;12.82;;;;;;;7.04;93.16;102532.81;6106061;19;20009;-75
2023/02/20 03:27:05;;;;;;;39.53;13.18;;;;;;;7.04;93.55;102543.25;6102811;19;20031;-75
2023/02/20 03:29:16;;;;;;;27.00;11.32;;;;;;;7.07;93.45;102528.47;6107056;19;20038;-74
2023/02/20 03:31:26;;;;;;;31.75;12.07;;;;;;;7.13;93.31;102533.69;6104919;19;20478;-74
2023/02/20 03:45:22;;;;;;;33.25;12.93;;;;;;;7.14;92.99;102528.47;6105732;19;20367;-75
2023/02/20 03:47:30;;;;;;;32.95;13.23;;;;;;;7.15;93.29;102527.59;6104502;19;20011;-78
2023/02/20 03:49:40;;;;;;;28.30;12.80;;;;;;;7.16;93.16;102518.00;6106331;19;20094;-76
2023/02/20 03:51:48;;;;;;;36.88;13.32;;;;;;;7.11;93.09;102504.03;6102583;19;20545;-75
2023/02/20 03:53:55;;;;;;;31.20;11.75;;;;;;;7.16;93.22;102510.16;6101072;19;20094;-79
2023/02/20 03:56:10;;;;;;;33.05;12.27;;;;;;;7.16;93.19;102510.16;6104121;19;20010;-77
2023/02/20 03:58:19;;;;;;;29.02;12.43;;;;;;;7.17;93.00;102509.31;6103204;19;20868;-78
2023/02/20 04:00:28;;;;;;;34.60;11.38;;;;;;;7.17;92.91;102509.31;6099956;19;20006;-77
2023/02/20 04:02:36;;;;;;;40.75;12.60;;;;;;;7.17;92.83;102499.72;6102969;19;20098;-77
2023/02/20 04:04:49;;;;;;;26.83;11.45;;;;;;;7.17;92.91;102501.47;6103092;19;20466;-78
2023/02/20 04:06:55;;;;;;;43.75;13.98;;;;;;;7.18;92.72;102505.81;6097694;19;20017;-77
2023/02/20 04:09:06;;;;;;;44.53;11.90;;;;;;;7.22;92.33;102504.94;6102457;19;20038;-77
2023/02/20 04:11:16;;;;;;;29.00;11.20;;;;;;;7.23;92.46;102519.75;6104759;19;20055;-78
2023/02/20 04:13:24;;;;;;;30.00;10.77;;;;;;;7.24;92.42;102516.25;6102147;19;20014;-74
2023/02/20 04:15:32;;;;;;;33.45;12.18;;;;;;;7.23;92.07;102504.06;6100006;19;20528;-75
2023/02/20 04:17:47;;;;;;;30.98;11.75;;;;;;;7.22;91.95;102505.81;6101959;19;20014;-77
2023/02/20 04:19:52;;;;;;;33.45;12.40;;;;;;;7.26;92.07;102498.81;6101773;19;20781;-78
2023/02/20 04:22:00;;;;;;;32.03;11.10;;;;;;;7.25;91.66;102507.56;6103057;19;20379;-78
2023/02/20 04:24:09;;;;;;;29.27;12.32;;;;;;;7.24;91.90;102511.03;6102086;19;20629;-74
2023/02/20 04:26:20;;;;;;;32.17;12.05;;;;;;;7.21;91.88;102496.25;6101004;19;20027;-77
2023/02/20 04:28:26;;;;;;;31.88;12.75;;;;;;;7.23;91.54;102496.22;6098549;19;20035;-77
2023/02/20 04:30:31;;;;;;;28.98;11.75;;;;;;;7.24;91.09;102498.84;6102911;19;20027;-78
2023/02/20 04:32:36;;;;;;;28.55;12.07;;;;;;;7.26;90.90;102506.66;6103320;19;20105;-78
2023/02/20 04:34:41;;;;;;;28.23;11.40;;;;;;;7.24;91.28;102496.22;6104250;19;20006;-78
2023/02/20 04:36:49;;;;;;;28.88;11.23;;;;;;;7.21;91.01;102495.34;6103042;19;20770;-78
2023/02/20 04:38:54;;;;;;;33.45;10.80;;;;;;;7.23;91.03;102509.28;6102543;19;20011;-77
2023/02/20 04:40:59;;;;;;;35.28;11.23;;;;;;;7.23;91.07;102509.28;6100794;19;20006;-78
2023/02/20 04:43:07;;;;;;;25.05;10.57;;;;;;;7.24;90.82;102511.03;6103938;19;20010;-75
2023/02/20 04:45:12;;;;;;;30.38;12.45;;;;;;;7.23;90.68;102504.06;6101778;19;20491;-75
2023/02/20 04:47:19;;;;;;;32.80;11.55;;;;;;;7.23;90.86;102504.06;6102817;19;20010;-74
2023/02/20 04:49:24;;;;;;;25.92;11.02;;;;;;;7.22;90.66;102510.19;6101573;19;20696;-75
2023/02/20 04:51:30;;;;;;;27.58;10.07;;;;;;;7.20;90.88;102509.28;6103957;19;20510;-76
2023/02/20 04:53:35;;;;;;;28.92;10.63;;;;;;;7.22;90.73;102508.44;6098673;19;20483;-75
2023/02/20 04:55:39;;;;;;;29.02;10.57;;;;;;;7.17;91.25;102509.31;6100725;19;20351;-76
2023/02/20 04:57:45;;;;;;;27.23;10.75;;;;;;;7.17;90.94;102501.47;6101441;19;20470;-76
2023/02/20 04:59:56;;;;;;;29.67;11.85;;;;;;;7.12;91.41;102503.19;6102899;19;20010;-75
2023/02/20 05:02:01;;;;;;;23.98;10.93;;;;;;;7.17;91.00;102501.47;6099270;19;20094;-75
2023/02/20 05:04:06;;;;;;;30.90;12.52;;;;;;;7.17;90.59;102509.31;6101909;19;20447;-75
2023/02/20 05:06:14;;;;;;;31.23;11.90;;;;;;;7.18;90.87;102514.50;6100831;19;20014;-78
2023/02/20 05:08:18;;;;;;;30.48;11.93;;;;;;;7.18;90.73;102517.13;6096000;19;20458;-77
2023/02/20 05:10:25;;;;;;;27.92;11.65;;;;;;;7.14;90.80;102511.91;6099249;19;20018;-75
2023/02/20 05:12:30;;;;;;;21.83;10.68;;;;;;;7.11;90.63;102514.50;6102344;19;20106;-78
2023/02/20 05:14:34;;;;;;;33.38;11.88;;;;;;;7.11;90.95;102520.63;6101976;19;20019;-78
2023/02/20 05:16:44;;;;;;;32.40;12.95;;;;;;;7.14;90.75;102530.22;6099463;19;20010;-77
2023/02/20 05:18:50;;;;;;;25.75;11.82;;;;;;;7.15;90.61;102529.34;6100813;19;20019;-76
2023/02/20 05:23:12;;;;;;;29.33;13.43;;;;;;;7.10;90.82;102516.25;6102522;19;20093;-78
2023/02/20 05:25:18;;;;;;;25.20;11.07;;;;;;;7.14;90.42;102531.09;6101914;19;20281;-77
2023/02/20 05:27:25;;;;;;;29.58;12.45;;;;;;;7.11;90.61;102525.84;6100318;19;20015;-76
2023/02/20 05:29:30;;;;;;;30.25;11.75;;;;;;;7.08;90.75;102517.13;6099653;19;20660;-77
2023/02/20 05:31:35;;;;;;;26.48;10.93;;;;;;;7.09;90.68;102529.34;6097815;19;20236;-77
2023/02/20 05:33:43;;;;;;;26.35;11.70;;;;;;;7.08;90.82;102520.59;6100728;19;20619;-77
2023/02/20 05:35:50;;;;;;;35.58;12.88;;;;;;;7.14;90.53;102525.00;6099428;19;20106;-74
2023/02/20 05:37:55;;;;;;;28.92;12.57;;;;;;;7.13;90.48;102520.63;6097630;19;20011;-75
2023/02/20 05:40:04;;;;;;;27.20;9.98;;;;;;;7.11;90.62;102520.63;6102257;19;20010;-75
2023/02/20 05:42:10;;;;;;;28.48;10.93;;;;;;;7.15;90.48;102526.72;6101033;19;20496;-74
2023/02/20 05:44:15;;;;;;;31.08;11.05;;;;;;;7.12;90.38;102518.88;6100598;19;20014;-75
2023/02/20 05:46:20;;;;;;;24.85;9.98;;;;;;;7.11;90.29;102517.13;6095324;19;20023;-74
2023/02/20 05:48:25;;;;;;;28.85;11.30;;;;;;;7.07;90.85;102507.53;6101393;19;20055;-74
2023/02/20 05:50:33;;;;;;;22.48;9.90;;;;;;;7.08;90.91;102507.53;6100562;19;20358;-76
2023/02/20 05:52:38;;;;;;;23.52;10.40;;;;;;;7.10;90.66;102507.53;6102465;19;20443;-78
2023/02/20 05:54:48;;;;;;;27.67;11.35;;;;;;;7.08;90.50;102514.50;6102740;19;20014;-77
2023/02/20 05:56:53;;;;;;;33.10;11.68;;;;;;;7.04;90.94;102517.13;6103033;19;20053;-78
2023/02/20 05:58:58;;;;;;;29.42;10.20;;;;;;;7.08;90.48;102517.13;6104380;19;20011;-78
2023/02/20 06:01:03;;;;;;;24.45;10.45;;;;;;;7.08;90.74;102512.75;6105697;19;20086;-78
2023/02/20 06:03:11;;;;;;;24.55;10.00;;;;;;;7.06;90.73;102508.41;6101070;19;20007;-75
2023/02/20 06:05:17;;;;;;;24.65;11.20;;;;;;;7.02;90.76;102511.00;6103010;19;20011;-76
2023/02/20 06:07:25;;;;;;;27.10;11.23;;;;;;;7.01;90.90;102501.44;6102181;19;20483;-74
2023/02/20 06:09:30;;;;;;;31.95;9.90;;;;;;;7.04;90.61;102508.41;6098912;19;20014;-76
2023/02/20 06:11:35;;;;;;;27.50;10.68;;;;;;;7.00;90.70;102494.47;6102838;19;20340;-76
2023/02/20 06:13:42;;;;;;;26.50;10.45;;;;;;;7.02;90.74;102507.53;6102191;19;20018;-76
2023/02/20 06:15:50;;;;;;;26.85;10.02;;;;;;;7.06;90.53;102514.53;6099028;19;20046;-79
2023/02/20 06:17:55;;;;;;;25.00;9.35;;;;;;;6.98;90.75;102511.03;6102653;19;20479;-78
2023/02/20 06:20:00;;;;;;;26.88;10.63;;;;;;;6.97;90.91;102517.09;6102001;19;20347;-77
2023/02/20 06:22:05;;;;;;;24.00;10.05;;;;;;;6.99;90.69;102521.47;6101805;19;20015;-78
2023/02/20 06:24:13;;;;;;;29.70;10.18;;;;;;;7.03;90.83;102517.13;6101784;19;20022;-76
2023/02/20 06:26:22;;;;;;;24.00;9.75;;;;;;;7.02;90.50;102513.63;6086285;19;20014;-77
2023/02/20 06:28:27;;;;;;;17.67;8.18;;;;;;;7.00;90.84;102511.88;6103483;19;20018;-77
2023/02/20 06:30:32;;;;;;;22.88;7.88;;;;;;;7.00;90.97;102512.78;6104885;19;20014;-75
2023/02/20 06:32:38;;;;;;;25.35;9.75;;;;;;;7.04;90.92;102509.28;6100876;19;20345;-75
2023/02/20 06:34:42;;;;;;;23.17;7.88;;;;;;;7.00;90.98;102520.63;6103248;19;20447;-76
2023/02/20 06:36:49;;;;;;;23.55;8.93;;;;;;;7.02;90.88;102512.75;6100024;19;20127;-74
2023/02/20 06:38:54;;;;;;;24.40;8.88;;;;;;;7.02;91.06;102515.38;6100940;19;20018;-75
2023/02/20 06:41:04;;;;;;;27.27;8.95;;;;;;;7.01;91.13;102513.66;6102768;19;20011;-76
2023/02/20 06:43:09;;;;;;;22.50;8.52;;;;;;;7.02;90.89;102508.41;6104338;19;20007;-74
2023/02/20 06:45:15;;;;;;;22.45;8.35;;;;;;;7.01;90.87;102517.13;6106925;19;20526;-75
2023/02/20 06:47:20;;;;;;;24.33;7.95;;;;;;;7.02;90.92;102518.00;6105942;19;20046;-75
2023/02/20 06:49:25;;;;;;;20.33;7.88;;;;;;;7.05;90.74;102520.59;6109791;19;20023;-74
2023/02/20 06:51:31;;;;;;;20.98;7.85;;;;;;;7.09;90.65;102524.13;6107636;19;20015;-76
2023/02/20 06:53:37;;;;;;;19.48;8.35;;;;;;;7.04;90.69;102516.25;6105943;19;20006;-76
2023/02/20 06:55:42;;;;;;;24.55;7.60;;;;;;;7.06;90.68;102527.59;6108074;19;20373;-75
2023/02/20 06:57:51;;;;;;;18.88;7.82;;;;;;;7.06;90.98;102518.84;6101441;19;20015;-76
2023/02/20 06:59:56;;;;;;;31.38;8.15;;;;;;;7.07;90.81;102528.47;6107240;19;20018;-78
2023/02/20 07:02:01;;;;;;;20.08;9.02;;;;;;;7.09;90.63;102519.75;6085164;19;20010;-77
2023/02/20 07:04:06;;;;;;;21.65;7.53;;;;;;;7.11;90.81;102531.09;6105003;19;20015;-76
2023/02/20 07:06:12;;;;;;;18.40;7.22;;;;;;;7.12;90.55;102518.88;6106280;19;20010;-77
2023/02/20 07:08:20;;;;;;;23.90;8.25;;;;;;;7.13;90.67;102515.38;6095009;19;20014;-77
2023/02/20 07:10:25;;;;;;;17.30;6.75;;;;;;;7.12;90.76;102522.38;6104596;19;20039;-76
2023/02/20 07:12:32;;;;;;;24.92;8.48;;;;;;;7.14;90.75;102531.09;6104418;19;20640;-75
2023/02/20 07:14:40;;;;;;;22.00;7.90;;;;;;;7.14;90.89;102525.84;6102790;19;20042;-75
2023/02/20 07:16:46;;;;;;;19.58;7.43;;;;;;;7.14;90.68;102525.00;6103285;19;20518;-75
2023/02/20 07:18:51;;;;;;;17.02;7.22;;;;;;;7.18;90.71;102529.34;6103456;19;20007;-78
2023/02/20 07:20:56;;;;;;;23.33;7.43;;;;;;;7.16;90.93;102533.69;6101372;19;20013;-78
2023/02/20 07:23:03;;;;;;;19.63;7.80;;;;;;;7.17;90.61;102525.84;6102248;19;20014;-78
2023/02/20 07:25:10;;;;;;;22.88;8.18;;;;;;;7.20;90.49;102519.75;6105621;19;20466;-78
2023/02/20 07:27:16;;;;;;;23.25;6.85;;;;;;;7.20;90.29;102522.38;6103117;19;20029;-74
2023/02/20 07:29:21;;;;;;;22.90;9.35;;;;;;;7.19;90.49;102518.03;6105819;19;20010;-75
2023/02/20 07:31:29;;;;;;;27.02;8.18;;;;;;;7.20;90.42;102525.84;6105039;19;20014;-76
2023/02/20 07:33:34;;;;;;;22.00;7.95;;;;;;;7.19;90.94;102525.88;6107583;19;20023;-75
2023/02/20 07:35:39;;;;;;;17.02;6.75;;;;;;;7.21;90.72;102545.00;6101304;19;20010;-76
2023/02/20 07:37:47;;;;;;;19.58;6.90;;;;;;;7.27;90.70;102537.19;6099652;19;20017;-78
2023/02/20 07:39:52;;;;;;;20.67;7.80;;;;;;;7.29;90.52;102524.97;6100253;19;20120;-79
2023/02/20 07:41:58;;;;;;;21.33;7.47;;;;;;;7.32;90.44;102530.22;6102584;19;20003;-78
2023/02/20 07:44:03;;;;;;;20.45;7.75;;;;;;;7.34;90.43;102525.84;6103907;19;20027;-81
2023/02/20 07:46:09;;;;;;;21.60;8.38;;;;;;;7.37;90.39;102533.72;6106641;19;20018;-80
2023/02/20 07:48:20;;;;;;;19.23;8.13;;;;;;;7.38;90.20;102522.38;6106590;19;20007;-76
2023/02/20 07:50:25;;;;;;;22.35;8.73;;;;;;;7.36;90.28;102513.66;6103044;19;20014;-79
2023/02/20 07:52:29;;;;;;;16.73;6.82;;;;;;;7.39;90.37;102520.63;6104277;19;20031;-82
2023/02/20 07:54:34;;;;;;;25.10;9.25;;;;;;;7.42;90.49;102526.72;6104337;19;20095;-80
2023/02/20 07:56:41;;;;;;;25.13;8.63;;;;;;;7.41;90.30;102519.75;6104394;19;20479;-80
2023/02/20 07:58:46;;;;;;;21.80;7.65;;;;;;;7.41;90.55;102519.75;6083367;19;20018;-80
2023/02/20 08:00:53;;;;;;;23.17;9.15;;;;;;;7.42;90.50;102529.31;6103715;19;20014;-80
2023/02/20 08:02:58;;;;;;;21.02;9.82;;;;;;;7.41;90.47;102529.34;6106103;19;20019;-75
2023/02/20 08:05:05;;;;;;;25.38;8.45;;;;;;;7.45;90.00;102526.75;6107273;19;20062;-79
2023/02/20 08:07:10;;;;;;;23.88;9.02;;;;;;;7.48;89.96;102526.72;6106560;19;20077;-80
2023/02/20 08:09:16;;;;;;;27.05;9.00;;;;;;;7.42;89.99;102524.09;6104453;19;20018;-80
2023/02/20 08:11:23;;;;;;;20.75;8.20;;;;;;;7.42;89.71;102531.94;6105644;19;20484;-80
2023/02/20 08:13:28;;;;;;;20.55;8.65;;;;;;;7.40;90.03;102546.78;6105109;19;20365;-80
2023/02/20 08:15:33;;;;;;;22.80;9.70;;;;;;;7.39;90.13;102531.09;6106364;19;20035;-80
2023/02/20 08:17:38;;;;;;;22.60;8.05;;;;;;;7.40;90.25;102536.31;6104984;19;20014;-81
2023/02/20 08:19:50;;;;;;;24.25;9.20;;;;;;;7.41;90.26;102530.22;6105837;19;20003;-80
2023/02/20 08:22:00;;;;;;;21.55;8.55;;;;;;;7.46;90.29;102543.31;6102758;19;20015;-75
2023/02/20 08:24:06;;;;;;;24.15;8.77;;;;;;;7.47;90.23;102545.03;6107503;19;20086;-80
2023/02/20 08:26:11;;;;;;;26.85;9.35;;;;;;;7.50;90.50;102550.25;6105115;19;20006;-80
2023/02/20 08:28:16;;;;;;;26.58;10.00;;;;;;;7.48;89.96;102546.78;6103305;19;20518;-79
2023/02/20 08:30:24;;;;;;;29.17;9.73;;;;;;;7.51;90.24;102551.16;6100675;19;20102;-80
2023/02/20 08:32:29;;;;;;;22.92;9.27;;;;;;;7.52;90.10;102548.50;6102707;19;20010;-80
2023/02/20 08:34:34;;;;;;;23.52;9.68;;;;;;;7.50;90.00;102545.03;6105445;19;20301;-75
2023/02/20 08:36:39;;;;;;;19.80;8.27;;;;;;;7.48;90.39;102539.81;6105526;19;20006;-75
2023/02/20 08:38:48;;;;;;;21.05;9.18;;;;;;;7.45;90.22;102541.53;6103478;19;20014;-75
2023/02/20 08:40:52;;;;;;;23.17;9.32;;;;;;;7.44;90.31;102545.91;6104061;19;20090;-75
2023/02/20 08:42:57;;;;;;;24.25;8.32;;;;;;;7.40;90.48;102538.06;6105622;19;20022;-75
2023/02/20 08:45:02;;;;;;;23.70;9.15;;;;;;;7.38;90.20;102531.97;6108139;19;20018;-81
2023/02/20 08:47:10;;;;;;;21.90;8.50;;;;;;;7.39;90.24;102520.63;6105446;19;20335;-81
2023/02/20 08:49:16;;;;;;;22.20;7.85;;;;;;;7.46;90.28;102543.31;6101875;19;20018;-79
2023/02/20 08:51:22;;;;;;;21.42;8.48;;;;;;;7.42;90.40;102546.78;6107068;19;20035;-79
2023/02/20 08:53:27;;;;;;;19.73;8.73;;;;;;;7.45;90.37;102528.47;6101935;19;20015;-80
2023/02/20 08:55:34;;;;;;;21.20;8.15;;;;;;;7.49;89.84;102538.06;6105548;19;20022;-81
2023/02/20 08:57:39;;;;;;;20.80;8.13;;;;;;;7.51;90.11;102523.25;6099708;19;20021;-74
2023/02/20 08:59:45;;;;;;;23.90;7.85;;;;;;;7.58;90.06;102524.09;6103108;19;20073;-76
2023/02/20 09:01:50;;;;;;;18.95;7.65;;;;;;;7.61;89.92;102517.13;6105030;19;20011;-75
2023/02/20 09:03:54;;;;;;;22.80;9.10;;;;;;;7.67;89.43;102534.56;6103921;19;20021;-75
2023/02/20 09:06:00;;;;;;;18.83;7.43;;;;;;;7.68;89.53;102524.06;6104077;19;20018;-75
2023/02/20 09:08:06;;;;;;;22.80;7.93;;;;;;;7.74;89.64;102515.38;6104790;19;20450;-75
2023/02/20 09:10:11;;;;;;;20.60;8.30;;;;;;;7.75;89.09;102517.09;6102912;19;20447;-75
2023/02/20 09:12:20;;;;;;;21.25;9.30;;;;;;;7.76;89.03;102524.06;6104867;19;20042;-75
2023/02/20 09:14:25;;;;;;;18.35;7.90;;;;;;;7.80;89.25;102532.81;6099897;19;20010;-75
2023/02/20 09:16:30;;;;;;;21.33;8.00;;;;;;;7.79;88.74;102526.66;6102936;19;20028;-76
2023/02/20 09:18:35;;;;;;;20.20;8.00;;;;;;;7.82;88.87;102528.41;6105885;19;20047;-81
2023/02/20 09:20:40;;;;;;;17.98;8.25;;;;;;;7.83;88.74;102522.31;6103514;19;20030;-75
2023/02/20 09:22:45;;;;;;;16.60;7.43;;;;;;;7.90;88.64;102530.16;6104163;19;20010;-76
2023/02/20 09:24:51;;;;;;;23.15;9.15;;;;;;;7.84;88.60;102532.78;6105371;19;20007;-75
2023/02/20 09:26:56;;;;;;;19.58;8.15;;;;;;;7.89;88.74;102538.00;6105873;19;20137;-74
2023/02/20 09:29:03;;;;;;;18.98;8.43;;;;;;;7.87;87.95;102524.03;6100730;19;20006;-75
2023/02/20 09:31:09;;;;;;;16.20;8.18;;;;;;;7.86;88.60;102535.41;6105876;19;20022;-75
2023/02/20 09:33:16;;;;;;;21.60;7.88;;;;;;;7.93;88.63;102541.50;6106921;19;20039;-81
2023/02/20 09:35:26;;;;;;;18.63;8.45;;;;;;;7.90;87.89;102539.78;6107403;19;20038;-80
2023/02/20 09:37:31;;;;;;;16.33;6.63;;;;;;;7.93;88.22;102538.91;6109876;19;20023;-79
2023/02/20 09:39:36;;;;;;;16.75;7.38;;;;;;;7.94;88.13;102551.97;6108785;19;20070;-80
2023/02/20 09:41:58;;;;;;;15.52;7.07;;;;;;;7.94;88.12;102545.84;6111510;19;20032;-80
2023/02/20 09:44:12;;;;;;;17.85;7.55;;;;;;;7.90;87.89;102545.88;6108466;19;20478;-80
2023/02/20 09:46:20;;;;;;;17.70;7.53;;;;;;;7.89;88.27;102549.34;6109526;19;20014;-80
2023/02/20 09:48:40;;;;;;;17.55;7.53;;;;;;;7.94;88.22;102545.84;6107114;19;20015;-80
2023/02/20 09:50:52;;;;;;;15.93;6.85;;;;;;;7.86;88.14;102541.50;6111061;19;20011;-81
2023/02/20 09:53:02;;;;;;;17.50;7.25;;;;;;;7.94;87.97;102546.72;6106843;19;20014;-80
2023/02/20 09:55:12;;;;;;;19.45;7.90;;;;;;;7.91;88.44;102537.13;6104583;19;20050;-76
2023/02/20 09:57:22;;;;;;;18.08;8.45;;;;;;;7.83;88.01;102543.25;6102492;19;20025;-74
2023/02/20 09:59:35;;;;;;;22.15;8.60;;;;;;;7.87;88.02;102535.41;6103164;19;20086;-75
2023/02/20 10:01:45;;;;;;;18.85;7.55;;;;;;;7.88;88.00;102546.75;6100570;19;20013;-75
2023/02/20 10:03:57;;;;;;;18.45;7.97;;;;;;;7.86;87.82;102543.25;6102780;19;20361;-75
2023/02/20 10:06:05;;;;;;;16.20;7.40;;;;;;;7.87;87.94;102530.19;6104098;19;20051;-76
2023/02/20 10:08:11;;;;;;;21.45;8.27;;;;;;;7.93;87.65;102534.53;6104294;19;20347;-76